sensor_id;sensor_type;location;lat;lon;timestamp;pressure;altitude;pressure_sealevel;temperature;humidity
1726;BME280;41776;48.260;8.928;2022-07-23T00:02:15;70877.09;;;-145.69;100.00
1726;BME280;41776;48.260;8.928;2022-07-23T00:04:43;70861.19;;;-145.69;100.00
1726;BME280;41776;48.260;8.928;2022-07-23T00:07:15;70865.16;;;-145.69;100.00
1726;BME280;41776;48.260;8.928;2022-07-23T00:09:44;70865.16;;;-145.69;100.00
1726;BME280;41776;48.260;8.928;2022-07-23T00:12:17;70863.19;;;-145.69;100.00
1726;BME280;41776;48.260;8.928;2022-07-23T00:14:44;70869.16;;;-145.69;100.00
1726;BME280;41776;48.260;8.928;2022-07-23T00:17:10;70875.13;;;-145.69;100.00
1726;BME280;41776;48.260;8.928;2022-07-23T00:19:40;70873.13;;;-145.69;100.00
1726;BME280;41776;48.260;8.928;2022-07-23T00:22:07;70873.13;;;-145.69;100.00
1726;BME280;41776;48.260;8.928;2022-07-23T00:24:34;70877.09;;;-145.69;100.00
1726;BME280;41776;48.260;8.928;2022-07-23T00:27:02;70885.06;;;-145.69;100.00
1726;BME280;41776;48.260;8.928;2022-07-23T00:29:30;70871.13;;;-145.69;100.00
1726;BME280;41776;48.260;8.928;2022-07-23T00:31:57;70865.16;;;-145.69;100.00
1726;BME280;41776;48.260;8.928;2022-07-23T00:34:27;70873.13;;;-145.69;100.00
1726;BME280;41776;48.260;8.928;2022-07-23T00:36:54;70865.16;;;-145.69;100.00
1726;BME280;41776;48.260;8.928;2022-07-23T00:39:21;70863.19;;;-145.69;100.00
1726;BME280;41776;48.260;8.928;2022-07-23T00:41:50;70857.22;;;-145.69;100.00
1726;BME280;41776;48.260;8.928;2022-07-23T00:44:19;70847.25;;;-145.69;100.00
1726;BME280;41776;48.260;8.928;2022-07-23T00:46:49;70861.19;;;-145.69;100.00
1726;BME280;41776;48.260;8.928;2022-07-23T00:49:18;70861.19;;;-145.69;100.00
1726;BME280;41776;48.260;8.928;2022-07-23T00:51:45;70875.13;;;-145.69;100.00
1726;BME280;41776;48.260;8.928;2022-07-23T00:54:12;70869.16;;;-145.69;100.00
1726;BME280;41776;48.260;8.928;2022-07-23T00:56:41;70867.16;;;-145.69;100.00
1726;BME280;41776;48.260;8.928;2022-07-23T00:59:09;70865.16;;;-145.69;100.00
1726;BME280;41776;48.260;8.928;2022-07-23T01:01:35;70857.22;;;-145.69;100.00
1726;BME280;41776;48.260;8.928;2022-07-23T01:04:05;70855.22;;;-145.69;100.00
1726;BME280;41776;48.260;8.928;2022-07-23T01:06:34;70861.19;;;-145.69;100.00
1726;BME280;41776;48.260;8.928;2022-07-23T01:09:05;70851.25;;;-145.69;100.00
1726;BME280;41776;48.260;8.928;2022-07-23T01:11:37;70843.28;;;-145.69;100.00
1726;BME280;41776;48.260;8.928;2022-07-23T01:14:11;70847.25;;;-145.69;100.00
1726;BME280;41776;48.260;8.928;2022-07-23T01:16:39;70855.22;;;-145.69;100.00
1726;BME280;41776;48.260;8.928;2022-07-23T01:19:10;70853.22;;;-145.69;100.00
1726;BME280;41776;48.260;8.928;2022-07-23T01:21:38;70855.22;;;-145.69;100.00
1726;BME280;41776;48.260;8.928;2022-07-23T01:24:10;70841.28;;;-145.69;100.00
1726;BME280;41776;48.260;8.928;2022-07-23T01:26:37;70829.34;;;-145.69;100.00
1726;BME280;41776;48.260;8.928;2022-07-23T01:29:10;70837.31;;;-145.69;100.00
1726;BME280;41776;48.260;8.928;2022-07-23T01:31:40;70837.31;;;-145.69;100.00
1726;BME280;41776;48.260;8.928;2022-07-23T01:34:10;70843.28;;;-145.69;100.00
1726;BME280;41776;48.260;8.928;2022-07-23T01:36:39;70837.31;;;-145.69;100.00
1726;BME280;41776;48.260;8.928;2022-07-23T01:39:12;70829.34;;;-145.69;100.00
1726;BME280;41776;48.260;8.928;2022-07-23T01:41:38;70817.41;;;-145.69;100.00
1726;BME280;41776;48.260;8.928;2022-07-23T01:44:09;70801.50;;;-145.69;100.00
1726;BME280;41776;48.260;8.928;2022-07-23T01:46:38;70809.47;;;-145.69;100.00
1726;BME280;41776;48.260;8.928;2022-07-23T01:49:10;70809.47;;;-145.69;100.00
1726;BME280;41776;48.260;8.928;2022-07-23T01:51:39;70795.53;;;-145.69;100.00
1726;BME280;41776;48.260;8.928;2022-07-23T01:54:26;70749.78;;;-145.69;100.00
1726;BME280;41776;48.260;8.928;2022-07-23T01:56:55;70700.03;;;-145.69;100.00
1726;BME280;41776;48.260;8.928;2022-07-23T01:59:22;70654.28;;;-145.69;94.81
1726;BME280;41776;48.260;8.928;2022-07-23T02:01:51;70656.25;;;-145.69;97.26
1726;BME280;41776;48.260;8.928;2022-07-23T02:04:18;70678.16;;;-145.69;100.00
1726;BME280;41776;48.260;8.928;2022-07-23T02:06:48;70725.91;;;-145.69;100.00
1726;BME280;41776;48.260;8.928;2022-07-23T02:09:28;70751.75;;;-145.69;100.00
1726;BME280;41776;48.260;8.928;2022-07-23T02:11:54;70773.66;;;-145.69;100.00
1726;BME280;41776;48.260;8.928;2022-07-23T02:14:24;70807.47;;;-145.69;100.00
1726;BME280;41776;48.260;8.928;2022-07-23T02:16:54;70825.38;;;-145.69;100.00
1726;BME280;41776;48.260;8.928;2022-07-23T02:19:21;70849.25;;;-145.69;100.00
1726;BME280;41776;48.260;8.928;2022-07-23T02:21:47;70859.19;;;-145.69;100.00
1726;BME280;41776;48.260;8.928;2022-07-23T02:24:14;70885.06;;;-145.69;100.00
1726;BME280;41776;48.260;8.928;2022-07-23T02:26:46;70897.00;;;-145.69;100.00
1726;BME280;41776;48.260;8.928;2022-07-23T02:29:13;70910.94;;;-145.69;100.00
1726;BME280;41776;48.260;8.928;2022-07-23T02:31:39;70914.91;;;-145.69;100.00
1726;BME280;41776;48.260;8.928;2022-07-23T02:34:08;70895.00;;;-145.69;100.00
1726;BME280;41776;48.260;8.928;2022-07-23T02:36:36;70889.03;;;-145.69;100.00
1726;BME280;41776;48.260;8.928;2022-07-23T02:39:05;70875.13;;;-145.69;100.00
1726;BME280;41776;48.260;8.928;2022-07-23T02:41:32;70861.19;;;-145.69;100.00
1726;BME280;41776;48.260;8.928;2022-07-23T02:44:02;70879.09;;;-145.69;100.00
1726;BME280;41776;48.260;8.928;2022-07-23T02:46:29;70875.13;;;-145.69;100.00
1726;BME280;41776;48.260;8.928;2022-07-23T02:48:55;70841.28;;;-145.69;100.00
1726;BME280;41776;48.260;8.928;2022-07-23T02:51:25;70825.38;;;-145.69;100.00
1726;BME280;41776;48.260;8.928;2022-07-23T02:53:52;70843.28;;;-145.69;100.00
1726;BME280;41776;48.260;8.928;2022-07-23T02:56:22;70881.09;;;-145.69;100.00
1726;BME280;41776;48.260;8.928;2022-07-23T02:58:48;70877.09;;;-145.69;100.00
1726;BME280;41776;48.260;8.928;2022-07-23T03:01:19;70875.13;;;-145.69;100.00
1726;BME280;41776;48.260;8.928;2022-07-23T03:03:47;70889.03;;;-145.69;100.00
1726;BME280;41776;48.260;8.928;2022-07-23T03:06:22;70895.00;;;-145.69;100.00
1726;BME280;41776;48.260;8.928;2022-07-23T03:08:54;70920.88;;;-145.69;100.00
1726;BME280;41776;48.260;8.928;2022-07-23T03:11:21;70932.81;;;-145.69;100.00
1726;BME280;41776;48.260;8.928;2022-07-23T03:13:49;70958.69;;;-145.69;100.00
1726;BME280;41776;48.260;8.928;2022-07-23T03:16:19;70976.59;;;-145.69;100.00
1726;BME280;41776;48.260;8.928;2022-07-23T03:18:46;70992.50;;;-145.69;100.00
1726;BME280;41776;48.260;8.928;2022-07-23T03:21:13;70974.59;;;-145.69;100.00
1726;BME280;41776;48.260;8.928;2022-07-23T03:23:43;70964.66;;;-145.69;100.00
1726;BME280;41776;48.260;8.928;2022-07-23T03:26:10;70966.63;;;-145.69;100.00
1726;BME280;41776;48.260;8.928;2022-07-23T03:28:36;70976.59;;;-145.69;100.00
1726;BME280;41776;48.260;8.928;2022-07-23T03:31:05;71000.47;;;-145.69;100.00
1726;BME280;41776;48.260;8.928;2022-07-23T03:33:33;71004.44;;;-145.69;100.00
1726;BME280;41776;48.260;8.928;2022-07-23T03:35:59;71006.44;;;-145.69;100.00
1726;BME280;41776;48.260;8.928;2022-07-23T03:38:26;70962.66;;;-145.69;100.00
1726;BME280;41776;48.260;8.928;2022-07-23T03:40:56;70968.63;;;-145.69;100.00
1726;BME280;41776;48.260;8.928;2022-07-23T03:43:23;70974.59;;;-145.69;100.00
1726;BME280;41776;48.260;8.928;2022-07-23T03:45:51;71004.44;;;-145.69;100.00
1726;BME280;41776;48.260;8.928;2022-07-23T03:48:17;71024.34;;;-145.69;100.00
1726;BME280;41776;48.260;8.928;2022-07-23T03:50:46;71036.28;;;-145.69;100.00
1726;BME280;41776;48.260;8.928;2022-07-23T03:53:13;71034.28;;;-145.69;100.00
1726;BME280;41776;48.260;8.928;2022-07-23T03:55:45;71038.25;;;-145.69;100.00
1726;BME280;41776;48.260;8.928;2022-07-23T03:58:14;71060.16;;;-145.69;100.00
1726;BME280;41776;48.260;8.928;2022-07-23T04:00:40;71066.13;;;-145.69;100.00
1726;BME280;41776;48.260;8.928;2022-07-23T04:03:09;71044.22;;;-145.69;100.00
1726;BME280;41776;48.260;8.928;2022-07-23T04:05:36;71014.38;;;-145.69;100.00
1726;BME280;41776;48.260;8.928;2022-07-23T04:08:04;70992.50;;;-145.69;100.00
1726;BME280;41776;48.260;8.928;2022-07-23T04:10:30;71004.44;;;-145.69;100.00
1726;BME280;41776;48.260;8.928;2022-07-23T04:13:05;71028.31;;;-145.69;100.00
1726;BME280;41776;48.260;8.928;2022-07-23T04:15:32;71042.25;;;-145.69;100.00
1726;BME280;41776;48.260;8.928;2022-07-23T04:18:02;71040.25;;;-145.69;100.00
1726;BME280;41776;48.260;8.928;2022-07-23T04:20:29;71056.16;;;-145.69;100.00
1726;BME280;41776;48.260;8.928;2022-07-23T04:22:58;71058.16;;;-145.69;100.00
1726;BME280;41776;48.260;8.928;2022-07-23T04:25:26;71058.16;;;-145.69;100.00
1726;BME280;41776;48.260;8.928;2022-07-23T04:27:55;71064.13;;;-145.69;100.00
1726;BME280;41776;48.260;8.928;2022-07-23T04:30:22;71062.13;;;-145.69;100.00
1726;BME280;41776;48.260;8.928;2022-07-23T04:32:48;71074.09;;;-145.69;100.00
1726;BME280;41776;48.260;8.928;2022-07-23T04:35:15;71072.09;;;-145.69;100.00
1726;BME280;41776;48.260;8.928;2022-07-23T04:37:44;71046.22;;;-145.69;100.00
1726;BME280;41776;48.260;8.928;2022-07-23T04:40:13;71052.19;;;-145.69;100.00
1726;BME280;41776;48.260;8.928;2022-07-23T04:42:44;71080.06;;;-145.69;100.00
1726;BME280;41776;48.260;8.928;2022-07-23T04:45:10;71076.06;;;-145.69;100.00
1726;BME280;41776;48.260;8.928;2022-07-23T04:47:40;71068.13;;;-145.69;100.00
1726;BME280;41776;48.260;8.928;2022-07-23T04:50:08;71064.13;;;-145.69;100.00
1726;BME280;41776;48.260;8.928;2022-07-23T04:52:37;71064.13;;;-145.69;100.00
1726;BME280;41776;48.260;8.928;2022-07-23T04:55:05;71064.13;;;-145.69;100.00
1726;BME280;41776;48.260;8.928;2022-07-23T04:57:34;71072.09;;;-145.69;100.00
1726;BME280;41776;48.260;8.928;2022-07-23T05:00:08;71074.09;;;-145.69;100.00
1726;BME280;41776;48.260;8.928;2022-07-23T05:02:40;71068.13;;;-145.69;100.00
1726;BME280;41776;48.260;8.928;2022-07-23T05:05:09;71066.13;;;-145.69;100.00
1726;BME280;41776;48.260;8.928;2022-07-23T05:07:35;71056.16;;;-145.69;100.00
1726;BME280;41776;48.260;8.928;2022-07-23T05:10:05;71050.22;;;-145.69;100.00
1726;BME280;41776;48.260;8.928;2022-07-23T05:12:33;71036.28;;;-145.69;100.00
1726;BME280;41776;48.260;8.928;2022-07-23T05:15:00;71036.28;;;-145.69;100.00
1726;BME280;41776;48.260;8.928;2022-07-23T05:17:30;71036.28;;;-145.69;100.00
1726;BME280;41776;48.260;8.928;2022-07-23T05:19:59;71044.22;;;-145.69;100.00
1726;BME280;41776;48.260;8.928;2022-07-23T05:22:25;71038.25;;;-145.69;100.00
1726;BME280;41776;48.260;8.928;2022-07-23T05:24:52;71038.25;;;-145.69;100.00
1726;BME280;41776;48.260;8.928;2022-07-23T05:27:20;71024.34;;;-145.69;100.00
1726;BME280;41776;48.260;8.928;2022-07-23T05:29:47;71026.31;;;-145.69;100.00
1726;BME280;41776;48.260;8.928;2022-07-23T05:32:13;71026.31;;;-145.69;100.00
1726;BME280;41776;48.260;8.928;2022-07-23T05:34:41;71016.38;;;-145.69;100.00
1726;BME280;41776;48.260;8.928;2022-07-23T05:37:08;71004.44;;;-145.69;100.00
1726;BME280;41776;48.260;8.928;2022-07-23T05:39:34;71012.41;;;-145.69;100.00
1726;BME280;41776;48.260;8.928;2022-07-23T05:42:01;70984.53;;;-145.69;100.00
1726;BME280;41776;48.260;8.928;2022-07-23T05:44:27;70940.78;;;-145.69;100.00
1726;BME280;41776;48.260;8.928;2022-07-23T05:46:54;70924.84;;;-145.69;100.00
1726;BME280;41776;48.260;8.928;2022-07-23T05:49:31;70875.13;;;-145.69;100.00
1726;BME280;41776;48.260;8.928;2022-07-23T05:52:04;70797.53;;;-145.69;100.00
1726;BME280;41776;48.260;8.928;2022-07-23T05:54:31;70757.72;;;-145.69;100.00
1726;BME280;41776;48.260;8.928;2022-07-23T05:57:01;70763.69;;;-145.69;100.00
1726;BME280;41776;48.260;8.928;2022-07-23T05:59:30;70711.97;;;-145.69;100.00
1726;BME280;41776;48.260;8.928;2022-07-23T06:02:00;70636.38;;;-145.69;100.00
1726;BME280;41776;48.260;8.928;2022-07-23T06:04:26;70634.38;;;-145.69;100.00
1726;BME280;41776;48.260;8.928;2022-07-23T06:06:53;70642.34;;;-145.69;100.00
1726;BME280;41776;48.260;8.928;2022-07-23T06:09:23;70662.22;;;-145.69;100.00
1726;BME280;41776;48.260;8.928;2022-07-23T06:11:53;70578.69;;;-145.69;100.00
1726;BME280;41776;48.260;8.928;2022-07-23T06:14:19;70556.78;;;-145.69;100.00
1726;BME280;41776;48.260;8.928;2022-07-23T06:16:46;70576.69;;;-145.69;100.00
1726;BME280;41776;48.260;8.928;2022-07-23T06:19:12;70538.88;;;-145.69;100.00
1726;BME280;41776;48.260;8.928;2022-07-23T06:21:39;70554.81;;;-145.69;100.00
1726;BME280;41776;48.260;8.928;2022-07-23T06:24:06;70471.25;;;-145.69;99.13
1726;BME280;41776;48.260;8.928;2022-07-23T06:26:33;70431.47;;;-145.69;98.84
1726;BME280;41776;48.260;8.928;2022-07-23T06:29:00;70361.84;;;-145.69;91.67
1726;BME280;41776;48.260;8.928;2022-07-23T06:31:26;70367.81;;;-145.69;85.22
1726;BME280;41776;48.260;8.928;2022-07-23T06:33:53;70405.59;;;-145.69;81.08
1726;BME280;41776;48.260;8.928;2022-07-23T06:36:20;70375.75;;;-145.69;82.17
1726;BME280;41776;48.260;8.928;2022-07-23T06:38:47;70353.88;;;-145.69;85.92
1726;BME280;41776;48.260;8.928;2022-07-23T06:41:13;70367.81;;;-145.69;86.27
1726;BME280;41776;48.260;8.928;2022-07-23T06:43:45;70355.88;;;-145.69;84.49
1726;BME280;41776;48.260;8.928;2022-07-23T06:46:11;70343.94;;;-145.69;83.75
1726;BME280;41776;48.260;8.928;2022-07-23T06:48:38;70262.38;;;-145.69;79.25
1726;BME280;41776;48.260;8.928;2022-07-23T06:51:06;70272.31;;;-145.69;81.04
1726;BME280;41776;48.260;8.928;2022-07-23T06:53:32;70256.41;;;-145.69;77.40
1726;BME280;41776;48.260;8.928;2022-07-23T06:55:59;70220.59;;;-145.69;78.71
1726;BME280;41776;48.260;8.928;2022-07-23T06:58:30;70212.63;;;-145.69;76.71
1726;BME280;41776;48.260;8.928;2022-07-23T07:00:59;70260.38;;;-145.69;76.53
1726;BME280;41776;48.260;8.928;2022-07-23T07:03:26;70282.25;;;-145.69;77.74
1726;BME280;41776;48.260;8.928;2022-07-23T07:05:52;70284.25;;;-145.69;79.89
1726;BME280;41776;48.260;8.928;2022-07-23T07:08:19;70296.19;;;-145.69;80.83
1726;BME280;41776;48.260;8.928;2022-07-23T07:10:46;70379.72;;;-145.69;80.03
1726;BME280;41776;48.260;8.928;2022-07-23T07:13:15;70387.69;;;-145.69;81.78
1726;BME280;41776;48.260;8.928;2022-07-23T07:15:41;70357.84;;;-145.69;80.34
1726;BME280;41776;48.260;8.928;2022-07-23T07:18:09;70339.94;;;-145.69;77.57
1726;BME280;41776;48.260;8.928;2022-07-23T07:20:36;70302.16;;;-145.69;77.92
1726;BME280;41776;48.260;8.928;2022-07-23T07:23:02;70276.28;;;-145.69;79.70
1726;BME280;41776;48.260;8.928;2022-07-23T07:25:29;70186.78;;;-145.69;72.81
1726;BME280;41776;48.260;8.928;2022-07-23T07:27:55;70182.78;;;-145.69;73.72
1726;BME280;41776;48.260;8.928;2022-07-23T07:30:22;70081.34;;;-145.69;74.56
1726;BME280;41776;48.260;8.928;2022-07-23T07:32:49;70073.38;;;-145.69;71.31
1726;BME280;41776;48.260;8.928;2022-07-23T07:35:16;70037.59;;;-145.69;73.58
1726;BME280;41776;48.260;8.928;2022-07-23T07:37:43;70049.50;;;-145.69;67.98
1726;BME280;41776;48.260;8.928;2022-07-23T07:40:10;70055.47;;;-145.69;69.89
1726;BME280;41776;48.260;8.928;2022-07-23T07:42:44;70083.34;;;-145.69;70.34
1726;BME280;41776;48.260;8.928;2022-07-23T07:45:10;70162.91;;;-145.69;73.70
1726;BME280;41776;48.260;8.928;2022-07-23T07:47:37;70143.00;;;-145.69;70.38
1726;BME280;41776;48.260;8.928;2022-07-23T07:50:04;70129.09;;;-145.69;72.52
1726;BME280;41776;48.260;8.928;2022-07-23T07:52:32;70236.50;;;-145.69;71.71
1726;BME280;41776;48.260;8.928;2022-07-23T07:54:58;70288.22;;;-145.69;77.86
1726;BME280;41776;48.260;8.928;2022-07-23T07:57:25;70204.69;;;-145.69;74.28
1726;BME280;41776;48.260;8.928;2022-07-23T07:59:51;70288.22;;;-145.69;76.71
1726;BME280;41776;48.260;8.928;2022-07-23T08:02:18;70324.03;;;-145.69;79.39
1726;BME280;41776;48.260;8.928;2022-07-23T08:04:44;70324.03;;;-145.69;79.93
1726;BME280;41776;48.260;8.928;2022-07-23T08:07:11;70286.25;;;-145.69;76.19
1726;BME280;41776;48.260;8.928;2022-07-23T08:09:39;70312.09;;;-145.69;78.60
1726;BME280;41776;48.260;8.928;2022-07-23T08:12:06;70335.97;;;-145.69;79.98
1726;BME280;41776;48.260;8.928;2022-07-23T08:14:37;70290.22;;;-145.69;77.72
1726;BME280;41776;48.260;8.928;2022-07-23T08:17:04;70320.06;;;-145.69;77.57
1726;BME280;41776;48.260;8.928;2022-07-23T08:19:36;70272.31;;;-145.69;75.67
1726;BME280;41776;48.260;8.928;2022-07-23T08:22:03;70242.47;;;-145.69;74.17
1726;BME280;41776;48.260;8.928;2022-07-23T08:24:29;70250.44;;;-145.69;72.87
1726;BME280;41776;48.260;8.928;2022-07-23T08:26:57;70294.19;;;-145.69;75.69
1726;BME280;41776;48.260;8.928;2022-07-23T08:29:24;70371.78;;;-145.69;78.88
1726;BME280;41776;48.260;8.928;2022-07-23T08:31:53;70345.91;;;-145.69;77.71
1726;BME280;41776;48.260;8.928;2022-07-23T08:34:19;70314.09;;;-145.69;77.84
1726;BME280;41776;48.260;8.928;2022-07-23T08:36:46;70236.50;;;-145.69;75.62
1726;BME280;41776;48.260;8.928;2022-07-23T08:39:13;70196.72;;;-145.69;73.34
1726;BME280;41776;48.260;8.928;2022-07-23T08:41:39;70109.19;;;-145.69;68.97
1726;BME280;41776;48.260;8.928;2022-07-23T08:44:08;70085.31;;;-145.69;69.88
1726;BME280;41776;48.260;8.928;2022-07-23T08:46:36;70145.00;;;-145.69;70.66
1726;BME280;41776;48.260;8.928;2022-07-23T08:49:04;70125.09;;;-145.69;69.44
1726;BME280;41776;48.260;8.928;2022-07-23T08:51:30;70101.25;;;-145.69;69.93
1726;BME280;41776;48.260;8.928;2022-07-23T08:53:58;70061.44;;;-145.69;67.41
1726;BME280;41776;48.260;8.928;2022-07-23T08:56:24;70035.59;;;-145.69;69.35
1726;BME280;41776;48.260;8.928;2022-07-23T08:58:53;70057.47;;;-145.69;67.03
1726;BME280;41776;48.260;8.928;2022-07-23T09:01:24;70065.44;;;-145.69;67.87
1726;BME280;41776;48.260;8.928;2022-07-23T09:03:51;70101.25;;;-145.69;71.02
1726;BME280;41776;48.260;8.928;2022-07-23T09:06:17;70150.97;;;-145.69;73.82
1726;BME280;41776;48.260;8.928;2022-07-23T09:08:44;70164.88;;;-145.69;73.32
1726;BME280;41776;48.260;8.928;2022-07-23T09:11:13;70111.19;;;-145.69;71.05
1726;BME280;41776;48.260;8.928;2022-07-23T09:13:42;70137.03;;;-145.69;73.33
1726;BME280;41776;48.260;8.928;2022-07-23T09:16:13;70033.59;;;-145.69;70.90
1726;BME280;41776;48.260;8.928;2022-07-23T09:18:46;69977.91;;;-145.69;67.68
1726;BME280;41776;48.260;8.928;2022-07-23T09:21:26;70057.47;;;-145.69;68.40
1726;BME280;41776;48.260;8.928;2022-07-23T09:23:56;70077.38;;;-145.69;70.31
1726;BME280;41776;48.260;8.928;2022-07-23T09:26:28;70083.34;;;-145.69;67.42
1726;BME280;41776;48.260;8.928;2022-07-23T09:29:08;70019.69;;;-145.69;65.95
1726;BME280;41776;48.260;8.928;2022-07-23T09:31:47;69946.09;;;-145.69;62.12
1726;BME280;41776;48.260;8.928;2022-07-23T09:34:18;69942.09;;;-145.69;65.48
1726;BME280;41776;48.260;8.928;2022-07-23T09:36:46;69910.28;;;-145.69;59.59
1726;BME280;41776;48.260;8.928;2022-07-23T09:39:14;69854.59;;;-145.69;58.83
1726;BME280;41776;48.260;8.928;2022-07-23T09:41:44;69862.53;;;-145.69;62.89
1726;BME280;41776;48.260;8.928;2022-07-23T09:44:13;69902.31;;;-145.69;58.38
1726;BME280;41776;48.260;8.928;2022-07-23T09:46:41;69995.81;;;-145.69;58.77
1726;BME280;41776;48.260;8.928;2022-07-23T09:49:14;70051.50;;;-145.69;60.36
1726;BME280;41776;48.260;8.928;2022-07-23T09:52:00;70049.50;;;-145.69;56.60
1726;BME280;41776;48.260;8.928;2022-07-23T09:54:32;70033.59;;;-145.69;57.40
1726;BME280;41776;48.260;8.928;2022-07-23T09:57:02;70049.50;;;-145.69;56.25
1726;BME280;41776;48.260;8.928;2022-07-23T09:59:34;70097.25;;;-145.69;57.38
1726;BME280;41776;48.260;8.928;2022-07-23T10:02:01;70133.06;;;-145.69;60.66
1726;BME280;41776;48.260;8.928;2022-07-23T10:04:29;70093.28;;;-145.69;62.05
1726;BME280;41776;48.260;8.928;2022-07-23T10:06:57;70059.47;;;-145.69;60.83
1726;BME280;41776;48.260;8.928;2022-07-23T10:09:27;70017.69;;;-145.69;58.39
1726;BME280;41776;48.260;8.928;2022-07-23T10:11:58;69962.00;;;-145.69;57.91
1726;BME280;41776;48.260;8.928;2022-07-23T10:14:30;69985.88;;;-145.69;55.11
1726;BME280;41776;48.260;8.928;2022-07-23T10:17:00;70053.50;;;-145.69;56.21
1726;BME280;41776;48.260;8.928;2022-07-23T10:19:27;70009.72;;;-145.69;53.90
1726;BME280;41776;48.260;8.928;2022-07-23T10:21:56;70005.75;;;-145.69;55.30
1726;BME280;41776;48.260;8.928;2022-07-23T10:24:47;70033.59;;;-145.69;56.00
1726;BME280;41776;48.260;8.928;2022-07-23T10:27:50;70005.75;;;-145.69;55.09
1726;BME280;41776;48.260;8.928;2022-07-23T10:30:20;70003.75;;;-145.69;54.71
1726;BME280;41776;48.260;8.928;2022-07-23T10:32:56;69993.81;;;-145.69;55.29
1726;BME280;41776;48.260;8.928;2022-07-23T10:35:29;69985.88;;;-145.69;56.13
1726;BME280;41776;48.260;8.928;2022-07-23T10:38:02;70009.72;;;-145.69;57.65
1726;BME280;41776;48.260;8.928;2022-07-23T10:40:34;69914.25;;;-145.69;57.34
1726;BME280;41776;48.260;8.928;2022-07-23T10:43:01;69846.63;;;-145.69;53.73
1726;BME280;41776;48.260;8.928;2022-07-23T10:45:30;69792.91;;;-145.69;50.33
1726;BME280;41776;48.260;8.928;2022-07-23T10:48:12;69906.28;;;-145.69;53.61
1726;BME280;41776;48.260;8.928;2022-07-23T10:51:09;69948.06;;;-145.69;58.08
1726;BME280;41776;48.260;8.928;2022-07-23T10:53:53;69997.78;;;-145.69;55.42
1726;BME280;41776;48.260;8.928;2022-07-23T10:56:50;69942.09;;;-145.69;56.04
1726;BME280;41776;48.260;8.928;2022-07-23T10:59:30;69993.81;;;-145.69;55.79
1726;BME280;41776;48.260;8.928;2022-07-23T11:02:20;70003.75;;;-145.69;55.15
1726;BME280;41776;48.260;8.928;2022-07-23T11:04:51;69997.78;;;-145.69;56.85
1726;BME280;41776;48.260;8.928;2022-07-23T11:07:20;69977.91;;;-145.69;53.98
1726;BME280;41776;48.260;8.928;2022-07-23T11:09:46;70017.69;;;-145.69;59.29
1726;BME280;41776;48.260;8.928;2022-07-23T11:12:32;70061.44;;;-145.69;59.07
1726;BME280;41776;48.260;8.928;2022-07-23T11:15:00;70093.28;;;-145.69;58.53
1726;BME280;41776;48.260;8.928;2022-07-23T11:17:27;70045.53;;;-145.69;58.26
1726;BME280;41776;48.260;8.928;2022-07-23T11:20:16;69946.09;;;-145.69;54.51
1726;BME280;41776;48.260;8.928;2022-07-23T11:22:50;69918.22;;;-145.69;53.47
1726;BME280;41776;48.260;8.928;2022-07-23T11:25:34;69794.91;;;-145.69;50.06
1726;BME280;41776;48.260;8.928;2022-07-23T11:28:16;69870.50;;;-145.69;52.27
1726;BME280;41776;48.260;8.928;2022-07-23T11:30:44;69946.09;;;-145.69;55.32
1726;BME280;41776;48.260;8.928;2022-07-23T11:33:19;69926.19;;;-145.69;55.01
1726;BME280;41776;48.260;8.928;2022-07-23T11:35:47;69958.00;;;-145.69;55.63
1726;BME280;41776;48.260;8.928;2022-07-23T11:38:17;69981.88;;;-145.69;58.06
1726;BME280;41776;48.260;8.928;2022-07-23T11:40:46;69997.78;;;-145.69;56.89
1726;BME280;41776;48.260;8.928;2022-07-23T11:43:13;70057.47;;;-145.69;58.42
1726;BME280;41776;48.260;8.928;2022-07-23T11:45:41;70021.66;;;-145.69;57.45
1726;BME280;41776;48.260;8.928;2022-07-23T11:48:09;70029.63;;;-145.69;57.63
1726;BME280;41776;48.260;8.928;2022-07-23T11:50:36;70043.56;;;-145.69;58.25
1726;BME280;41776;48.260;8.928;2022-07-23T11:53:03;69940.13;;;-145.69;56.09
1726;BME280;41776;48.260;8.928;2022-07-23T11:55:31;69814.78;;;-145.69;51.68
1726;BME280;41776;48.260;8.928;2022-07-23T11:57:57;69798.88;;;-145.69;49.16
1726;BME280;41776;48.260;8.928;2022-07-23T12:00:26;69751.16;;;-145.69;49.50
1726;BME280;41776;48.260;8.928;2022-07-23T12:02:55;69687.50;;;-145.69;48.42
1726;BME280;41776;48.260;8.928;2022-07-23T12:05:25;69727.28;;;-145.69;48.21
1726;BME280;41776;48.260;8.928;2022-07-23T12:07:53;69794.91;;;-145.69;49.15
1726;BME280;41776;48.260;8.928;2022-07-23T12:10:23;69749.16;;;-145.69;49.94
1726;BME280;41776;48.260;8.928;2022-07-23T12:12:52;69719.31;;;-145.69;47.02
1726;BME280;41776;48.260;8.928;2022-07-23T12:15:21;69745.19;;;-145.69;46.28
1726;BME280;41776;48.260;8.928;2022-07-23T12:17:50;69747.16;;;-145.69;46.43
1726;BME280;41776;48.260;8.928;2022-07-23T12:20:18;69759.09;;;-145.69;47.50
1726;BME280;41776;48.260;8.928;2022-07-23T12:22:47;69749.16;;;-145.69;45.64
1726;BME280;41776;48.260;8.928;2022-07-23T12:25:16;69599.97;;;-145.69;48.73
1726;BME280;41776;48.260;8.928;2022-07-23T12:27:43;69566.16;;;-145.69;45.27
1726;BME280;41776;48.260;8.928;2022-07-23T12:30:24;69603.97;;;-145.69;40.61
1726;BME280;41776;48.260;8.928;2022-07-23T12:32:53;69737.22;;;-145.69;42.94
1726;BME280;41776;48.260;8.928;2022-07-23T12:35:21;69830.72;;;-145.69;44.83
1726;BME280;41776;48.260;8.928;2022-07-23T12:37:50;69755.13;;;-145.69;43.51
1726;BME280;41776;48.260;8.928;2022-07-23T12:40:25;69749.16;;;-145.69;43.01
1726;BME280;41776;48.260;8.928;2022-07-23T12:42:53;69810.81;;;-145.69;45.49
1726;BME280;41776;48.260;8.928;2022-07-23T12:45:20;69773.03;;;-145.69;43.24
1726;BME280;41776;48.260;8.928;2022-07-23T12:48:02;69749.16;;;-145.69;42.48
1726;BME280;41776;48.260;8.928;2022-07-23T12:50:36;69709.38;;;-145.69;43.02
1726;BME280;41776;48.260;8.928;2022-07-23T12:53:08;69723.31;;;-145.69;41.75
1726;BME280;41776;48.260;8.928;2022-07-23T12:55:36;69735.25;;;-145.69;42.10
1726;BME280;41776;48.260;8.928;2022-07-23T12:58:08;69866.50;;;-145.69;44.11